Time;durP1;ratioP1;P1;durP2;ratioP2;P2;SDS_P1;SDS_P2;PMS_P1;PMS_P2;Temp;Humidity;BMP_temperature;BMP_pressure;BME280_temperature;BME280_humidity;BME280_pressure;Samples;Min_cycle;Max_cycle;Signal;HPM_P1;HPM_P2
2021/08/18 00:01:41;;;;;;;25.95;15.73;;;22.80;72.70;;;;;;5037679;28;20029;-87
2021/08/18 00:04:07;;;;;;;26.00;16.05;;;22.80;72.90;;;;;;5040076;28;20030;-84
2021/08/18 00:06:33;;;;;;;27.13;15.43;;;22.80;72.70;;;;;;5042954;28;20056;-86
2021/08/18 00:08:59;;;;;;;26.02;15.75;;;22.70;73.20;;;;;;5038929;28;20021;-86
2021/08/18 00:11:24;;;;;;;26.65;16.08;;;22.70;72.90;;;;;;5038333;28;20033;-86
2021/08/18 00:13:50;;;;;;;26.10;15.82;;;22.70;72.80;;;;;;5038118;28;20025;-85
2021/08/18 00:16:19;;;;;;;26.98;15.40;;;22.70;72.70;;;;;;5038615;28;20084;-87
2021/08/18 00:18:49;;;;;;;23.20;15.20;;;22.70;72.80;;;;;;5041494;28;20064;-84
2021/08/18 00:21:15;;;;;;;28.13;15.38;;;22.60;72.90;;;;;;5035114;28;20028;-84
2021/08/18 00:23:41;;;;;;;27.17;16.73;;;22.70;73.00;;;;;;5036636;28;20097;-84
2021/08/18 00:26:06;;;;;;;29.73;15.82;;;22.60;72.90;;;;;;5037256;28;20100;-84
2021/08/18 00:28:32;;;;;;;24.90;14.25;;;22.60;73.20;;;;;;5036505;28;20148;-86
2021/08/18 00:30:59;;;;;;;26.58;16.02;;;22.60;73.70;;;;;;5036780;28;20047;-86
2021/08/18 00:33:25;;;;;;;21.42;15.45;;;22.60;73.70;;;;;;5035280;28;20038;-85
2021/08/18 00:35:51;;;;;;;23.90;15.80;;;22.60;74.00;;;;;;5015322;28;20045;-86
2021/08/18 00:38:16;;;;;;;28.70;16.48;;;22.50;73.50;;;;;;5036715;28;20068;-85
2021/08/18 00:40:42;;;;;;;26.65;16.45;;;22.50;73.30;;;;;;5036945;28;20550;-86
2021/08/18 00:43:08;;;;;;;26.67;15.68;;;22.50;73.60;;;;;;5036711;28;20437;-86
2021/08/18 00:45:34;;;;;;;27.90;15.57;;;22.40;73.60;;;;;;5037099;28;20407;-87
2021/08/18 00:48:00;;;;;;;24.13;15.13;;;22.40;73.70;;;;;;5018785;28;20451;-87
2021/08/18 00:50:27;;;;;;;29.30;16.45;;;22.40;74.10;;;;;;5037374;28;20022;-84
2021/08/18 00:52:56;;;;;;;25.27;15.52;;;22.40;74.00;;;;;;5019136;28;20543;-86
2021/08/18 00:55:24;;;;;;;31.80;15.40;;;22.40;74.10;;;;;;5022582;28;20473;-86
2021/08/18 00:57:51;;;;;;;30.65;15.30;;;22.40;74.10;;;;;;5038128;28;20418;-85
2021/08/18 01:00:19;;;;;;;29.25;16.17;;;22.40;73.90;;;;;;5025077;28;20390;-86
2021/08/18 01:02:47;;;;;;;39.33;16.05;;;22.40;74.10;;;;;;5036501;28;20037;-86
2021/08/18 01:05:18;;;;;;;30.52;16.67;;;22.30;74.10;;;;;;5037621;28;20024;-85
2021/08/18 01:07:51;;;;;;;25.25;15.73;;;22.30;74.10;;;;;;5037381;28;20029;-85
2021/08/18 01:10:21;;;;;;;27.95;15.52;;;22.30;74.60;;;;;;5036739;28;20024;-85
2021/08/18 01:12:48;;;;;;;29.65;16.55;;;22.30;74.40;;;;;;5037355;28;20033;-86
2021/08/18 01:15:16;;;;;;;24.50;15.20;;;22.20;74.50;;;;;;5036994;28;20049;-84
2021/08/18 01:17:44;;;;;;;31.48;15.10;;;22.20;74.90;;;;;;5037211;28;20387;-87
2021/08/18 01:20:12;;;;;;;26.30;15.48;;;22.20;74.90;;;;;;5035526;28;20025;-85
2021/08/18 01:22:38;;;;;;;32.60;16.10;;;22.20;74.90;;;;;;5036820;28;20094;-86
2021/08/18 01:25:08;;;;;;;33.20;16.88;;;22.20;75.00;;;;;;5036122;28;20060;-84
2021/08/18 01:27:36;;;;;;;28.23;16.05;;;22.20;75.50;;;;;;5036704;28;20022;-86
2021/08/18 01:30:02;;;;;;;;;;;22.10;75.50;;;;;;5036623;28;20356;-85
2021/08/18 01:32:28;;;;;;;31.25;17.60;;;22.10;74.70;;;;;;5035341;28;19917;-86
2021/08/18 01:34:54;;;;;;;27.77;15.77;;;22.00;75.40;;;;;;5036078;28;20036;-86
2021/08/18 01:37:20;;;;;;;26.65;16.58;;;22.00;75.20;;;;;;5021726;28;20058;-86
2021/08/18 01:39:45;;;;;;;24.35;15.50;;;22.00;75.40;;;;;;5035482;28;20018;-84
2021/08/18 01:42:11;;;;;;;28.75;16.35;;;22.00;75.20;;;;;;5018584;28;20037;-85
2021/08/18 01:44:37;;;;;;;24.38;15.75;;;22.00;75.40;;;;;;5039069;28;20105;-85
2021/08/18 01:47:03;;;;;;;22.45;16.02;;;22.00;75.50;;;;;;5036236;28;20382;-87
2021/08/18 01:49:29;;;;;;;33.50;17.25;;;22.00;75.10;;;;;;5036174;28;20028;-84
2021/08/18 01:51:58;;;;;;;26.83;16.40;;;21.90;75.20;;;;;;5037488;28;20025;-84
2021/08/18 01:54:24;;;;;;;28.83;15.93;;;22.00;75.90;;;;;;5034816;28;20486;-84
2021/08/18 01:56:50;;;;;;;21.98;15.68;;;21.90;75.50;;;;;;5034858;28;20029;-84
2021/08/18 01:59:16;;;;;;;29.00;15.70;;;21.90;75.50;;;;;;5035626;28;20022;-86
2021/08/18 02:01:42;;;;;;;26.77;16.33;;;21.80;75.70;;;;;;5035176;28;20083;-86
2021/08/18 02:04:08;;;;;;;29.00;16.83;;;21.90;76.00;;;;;;5035977;28;20018;-86
2021/08/18 02:06:35;;;;;;;25.92;16.92;;;21.90;75.90;;;;;;5035462;28;20036;-83
2021/08/18 02:09:01;;;;;;;;;;;21.80;75.80;;;;;;5036300;28;20045;-83
2021/08/18 02:11:27;;;;;;;28.48;16.33;;;21.80;75.40;;;;;;5035928;28;19962;-83
2021/08/18 02:13:53;;;;;;;25.35;16.75;;;21.70;76.20;;;;;;5039817;28;20018;-80
2021/08/18 02:16:19;;;;;;;29.00;16.60;;;21.70;76.10;;;;;;5038881;28;20073;-83
2021/08/18 02:18:45;;;;;;;25.65;15.50;;;21.70;76.40;;;;;;5036652;28;20029;-81
2021/08/18 02:21:11;;;;;;;28.10;16.58;;;21.70;76.00;;;;;;5034383;28;20053;-84
2021/08/18 02:23:37;;;;;;;35.38;17.70;;;21.70;76.30;;;;;;5033820;28;20037;-84
2021/08/18 02:26:03;;;;;;;29.02;16.40;;;21.70;76.90;;;;;;5033984;28;20054;-84
2021/08/18 02:28:29;;;;;;;32.90;16.65;;;;;;;;;;5034454;28;20028;-83
2021/08/18 02:30:54;;;;;;;31.60;16.33;;;21.70;76.90;;;;;;5031592;28;20018;-85
2021/08/18 02:33:24;;;;;;;24.13;17.00;;;21.70;76.60;;;;;;5025222;28;20375;-83
2021/08/18 02:35:51;;;;;;;22.35;16.45;;;21.70;76.60;;;;;;5033607;28;20056;-83
2021/08/18 02:38:17;;;;;;;25.38;16.25;;;21.80;76.70;;;;;;5033441;28;20034;-84
2021/08/18 02:40:43;;;;;;;30.58;16.52;;;21.80;76.60;;;;;;5033709;28;20105;-84
2021/08/18 02:43:09;;;;;;;32.95;16.25;;;21.70;76.20;;;;;;5034219;28;20362;-84
2021/08/18 02:45:35;;;;;;;26.35;15.00;;;21.70;76.10;;;;;;5035076;28;20387;-84
2021/08/18 02:48:01;;;;;;;26.60;15.95;;;21.70;76.20;;;;;;5016297;28;20029;-85
2021/08/18 02:50:29;;;;;;;32.42;15.82;;;21.80;76.30;;;;;;5033915;28;20084;-83
2021/08/18 02:52:55;;;;;;;24.67;16.73;;;21.80;75.90;;;;;;5033929;28;20025;-84
2021/08/18 02:55:21;;;;;;;27.85;15.13;;;21.80;75.80;;;;;;5033747;28;20079;-84
2021/08/18 02:57:47;;;;;;;29.92;16.42;;;21.90;75.70;;;;;;5033712;28;20441;-84
2021/08/18 03:00:13;;;;;;;27.42;15.90;;;21.90;75.70;;;;;;5034602;28;20087;-83
2021/08/18 03:02:39;;;;;;;27.48;16.67;;;21.90;75.50;;;;;;5034910;28;20036;-82
2021/08/18 03:05:09;;;;;;;32.38;16.08;;;21.90;75.20;;;;;;5017240;28;20020;-85
2021/08/18 03:07:35;;;;;;;31.83;16.65;;;21.90;75.30;;;;;;5017023;28;20029;-84
2021/08/18 03:10:01;;;;;;;26.58;17.15;;;22.00;75.40;;;;;;5038348;28;20017;-82
2021/08/18 03:12:27;;;;;;;33.50;15.38;;;22.00;75.20;;;;;;5037105;28;20103;-82
2021/08/18 03:14:53;;;;;;;34.80;16.77;;;22.10;75.00;;;;;;5037120;28;20048;-83
2021/08/18 03:17:19;;;;;;;24.67;15.73;;;22.20;74.60;;;;;;5037177;28;20111;-84
2021/08/18 03:19:45;;;;;;;25.52;14.55;;;22.20;74.30;;;;;;5037471;28;20036;-85
2021/08/18 03:22:10;;;;;;;26.80;15.45;;;22.30;73.60;;;;;;5038482;28;20528;-84
2021/08/18 03:24:36;;;;;;;30.02;16.52;;;22.30;73.70;;;;;;5039991;28;20037;-85
2021/08/18 03:27:02;;;;;;;40.15;16.90;;;22.30;73.10;;;;;;5020599;28;20101;-84
2021/08/18 03:29:28;;;;;;;27.38;15.48;;;22.40;72.60;;;;;;5037785;28;20453;-84
2021/08/18 03:31:54;;;;;;;29.50;16.45;;;22.40;72.80;;;;;;5036937;28;20109;-86
2021/08/18 03:34:20;;;;;;;26.50;15.43;;;22.40;72.70;;;;;;5039290;28;20041;-86
2021/08/18 03:36:46;;;;;;;27.10;15.63;;;22.40;72.70;;;;;;5038307;28;20029;-86
2021/08/18 03:39:12;;;;;;;24.02;15.73;;;22.40;72.20;;;;;;5037425;28;20378;-85
2021/08/18 03:41:37;;;;;;;28.98;16.50;;;22.50;72.20;;;;;;5038159;28;20021;-86
2021/08/18 03:44:03;;;;;;;28.55;15.82;;;22.50;71.80;;;;;;5037428;28;20040;-87
2021/08/18 03:46:29;;;;;;;30.70;15.38;;;22.60;72.00;;;;;;5038427;28;20033;-86
2021/08/18 03:48:55;;;;;;;31.42;16.45;;;22.70;71.30;;;;;;5038195;28;20041;-84
2021/08/18 03:51:22;;;;;;;26.05;15.07;;;22.70;70.90;;;;;;5038148;28;20018;-86
2021/08/18 03:53:48;;;;;;;30.08;16.30;;;22.80;70.90;;;;;;5037695;28;20375;-86
2021/08/18 03:56:16;;;;;;;31.95;16.00;;;22.90;71.00;;;;;;5019384;28;20029;-86
2021/08/18 03:58:43;;;;;;;23.27;16.08;;;23.00;70.90;;;;;;5037014;28;20022;-85
2021/08/18 04:01:09;;;;;;;25.92;15.90;;;23.10;70.00;;;;;;5037102;28;20033;-85
2021/08/18 04:03:36;;;;;;;30.00;16.45;;;23.10;69.60;;;;;;5037770;28;20021;-85
2021/08/18 04:06:02;;;;;;;29.30;16.73;;;23.10;69.90;;;;;;5019329;28;20083;-84
2021/08/18 04:08:28;;;;;;;22.83;15.30;;;23.10;69.90;;;;;;5038031;28;20033;-85
2021/08/18 04:10:54;;;;;;;26.00;16.13;;;23.20;68.60;;;;;;5037552;28;20466;-85
2021/08/18 04:13:20;;;;;;;27.20;15.57;;;23.20;68.40;;;;;;5037217;28;20501;-85
2021/08/18 04:15:46;;;;;;;28.90;14.85;;;23.30;68.00;;;;;;5037274;28;20042;-86
2021/08/18 04:18:12;;;;;;;27.10;14.73;;;23.30;67.10;;;;;;5037447;28;20037;-85
2021/08/18 04:20:38;;;;;;;25.13;15.07;;;23.20;67.30;;;;;;5034965;28;20360;-84
2021/08/18 04:23:04;;;;;;;31.40;15.35;;;23.30;67.30;;;;;;5039993;28;20025;-83
2021/08/18 04:25:31;;;;;;;25.38;14.68;;;23.40;67.50;;;;;;5032382;28;20491;-83
2021/08/18 04:27:57;;;;;;;23.30;13.55;;;23.40;67.00;;;;;;5034880;28;20083;-84
2021/08/18 04:30:23;;;;;;;19.35;14.85;;;23.50;66.80;;;;;;5035190;28;20033;-84
2021/08/18 04:32:50;;;;;;;21.38;14.93;;;23.50;66.30;;;;;;5036008;28;20033;-84
2021/08/18 04:35:16;;;;;;;28.02;15.10;;;23.60;66.70;;;;;;5037687;28;20049;-85
2021/08/18 04:37:43;;;;;;;28.25;14.40;;;23.70;66.90;;;;;;5045701;28;20120;-83
2021/08/18 04:40:11;;;;;;;22.08;14.95;;;23.70;65.70;;;;;;5049423;28;20504;-83
2021/08/18 04:42:43;;;;;;;23.17;14.25;;;23.70;65.80;;;;;;5034958;28;20044;-86
2021/08/18 04:45:11;;;;;;;27.02;14.55;;;24.00;66.30;;;;;;5037672;28;20077;-87
2021/08/18 04:47:37;;;;;;;24.58;14.27;;;24.60;64.60;;;;;;5036455;28;20025;-86
2021/08/18 04:50:08;;;;;;;21.52;14.52;;;25.20;62.90;;;;;;5036549;28;20426;-87
2021/08/18 04:52:34;;;;;;;27.60;14.93;;;25.70;60.10;;;;;;5030930;28;20026;-85
2021/08/18 04:55:00;;;;;;;23.15;12.52;;;26.40;59.60;;;;;;5036483;28;20109;-86
2021/08/18 04:57:25;;;;;;;22.40;14.15;;;26.80;57.50;;;;;;5021211;28;20391;-84
2021/08/18 04:59:51;;;;;;;24.75;14.68;;;27.40;56.40;;;;;;5036595;28;20026;-86
2021/08/18 05:02:17;;;;;;;23.50;13.93;;;27.90;55.10;;;;;;5030165;28;20045;-87
2021/08/18 05:04:43;;;;;;;26.75;12.50;;;28.10;54.30;;;;;;5036569;28;20029;-88
2021/08/18 05:07:09;;;;;;;25.20;13.68;;;28.10;53.40;;;;;;5036203;28;20103;-87
2021/08/18 05:09:35;;;;;;;18.95;13.38;;;28.30;53.10;;;;;;5029396;28;20494;-86
2021/08/18 05:12:01;;;;;;;24.15;13.10;;;28.50;52.50;;;;;;5035938;28;20510;-86
2021/08/18 05:14:27;;;;;;;26.85;13.00;;;28.90;51.40;;;;;;5035846;28;20383;-85
2021/08/18 05:16:53;;;;;;;19.13;13.20;;;29.60;50.40;;;;;;5036338;28;20033;-84
2021/08/18 05:19:19;;;;;;;26.05;13.38;;;30.00;49.80;;;;;;5036402;28;20097;-85
2021/08/18 05:21:44;;;;;;;20.60;12.27;;;30.50;49.40;;;;;;5036374;28;20053;-86
2021/08/18 05:24:10;;;;;;;23.85;12.95;;;30.70;47.40;;;;;;5034171;28;20087;-88
2021/08/18 05:26:36;;;;;;;21.88;12.38;;;31.30;46.90;;;;;;5038341;28;20025;-86
2021/08/18 05:29:05;;;;;;;22.30;11.97;;;31.80;45.70;;;;;;5036443;28;20100;-87
2021/08/18 05:31:31;;;;;;;24.30;11.50;;;31.60;45.60;;;;;;5034367;28;20044;-87
2021/08/18 05:33:56;;;;;;;17.67;12.43;;;31.60;45.70;;;;;;5036250;28;20458;-86
2021/08/18 05:36:23;;;;;;;19.20;11.93;;;32.20;45.00;;;;;;5035570;28;20022;-87
2021/08/18 05:38:49;;;;;;;24.37;11.10;;;32.30;43.50;;;;;;5036130;28;20106;-88
2021/08/18 05:41:15;;;;;;;18.83;11.48;;;32.20;43.90;;;;;;5035352;28;20078;-86
2021/08/18 05:43:41;;;;;;;24.17;12.37;;;32.90;44.20;;;;;;5035661;28;20351;-85
2021/08/18 05:46:06;;;;;;;21.47;12.53;;;33.90;42.50;;;;;;5018180;28;20017;-88
2021/08/18 05:48:32;;;;;;;16.87;11.07;;;34.50;41.80;;;;;;5034948;28;20499;-86
2021/08/18 05:50:58;;;;;;;22.10;11.20;;;35.00;40.70;;;;;;5027991;28;20100;-87
2021/08/18 05:53:24;;;;;;;20.63;12.43;;;34.90;40.10;;;;;;5036001;28;20502;-87
2021/08/18 05:55:51;;;;;;;18.48;11.68;;;35.10;40.00;;;;;;5035671;28;20041;-87
2021/08/18 05:58:17;;;;;;;15.77;11.30;;;34.50;39.80;;;;;;5035830;28;20548;-83
2021/08/18 06:00:44;;;;;;;25.85;12.30;;;34.30;40.50;;;;;;5034548;28;20029;-86
2021/08/18 06:03:09;;;;;;;;;;;34.70;40.40;;;;;;5033257;28;20409;-86
2021/08/18 06:05:38;;;;;;;22.35;11.00;;;35.40;40.60;;;;;;5026586;28;19905;-86
2021/08/18 06:08:05;;;;;;;29.80;12.18;;;36.10;39.90;;;;;;5034938;28;20427;-88
2021/08/18 06:10:31;;;;;;;24.60;11.25;;;36.30;38.60;;;;;;5037205;28;20082;-86
2021/08/18 06:12:58;;;;;;;20.10;11.85;;;36.50;37.90;;;;;;5033091;28;20099;-86
2021/08/18 06:15:24;;;;;;;24.23;11.90;;;36.60;37.70;;;;;;5022244;28;20068;-84
2021/08/18 06:17:49;;;;;;;20.73;10.73;;;36.80;37.50;;;;;;5029049;28;20036;-88
2021/08/18 06:20:17;;;;;;;19.47;10.07;;;37.40;36.90;;;;;;5035389;28;20034;-89
2021/08/18 06:22:47;;;;;;;20.33;11.43;;;36.70;37.00;;;;;;5037147;28;20301;-87
2021/08/18 06:25:15;;;;;;;24.48;10.70;;;36.90;37.10;;;;;;5004433;28;20083;-86
2021/08/18 06:27:41;;;;;;;18.80;9.50;;;37.10;37.50;;;;;;5023355;28;20029;-85
2021/08/18 06:30:09;;;;;;;15.55;9.98;;;38.10;36.10;;;;;;5037333;28;20052;-83
2021/08/18 06:32:35;;;;;;;20.20;9.50;;;38.10;35.60;;;;;;5027534;28;20038;-87
2021/08/18 06:35:05;;;;;;;13.02;9.65;;;37.40;35.70;;;;;;5034047;28;20487;-84
2021/08/18 06:37:30;;;;;;;14.60;9.77;;;37.40;35.40;;;;;;5033840;28;20033;-85
2021/08/18 06:39:56;;;;;;;18.77;9.77;;;36.70;36.30;;;;;;5033118;28;20025;-88
2021/08/18 06:42:22;;;;;;;15.15;8.27;;;36.80;37.10;;;;;;5034726;28;20040;-85
2021/08/18 06:44:49;;;;;;;14.90;9.30;;;38.00;36.30;;;;;;5038318;28;20459;-83
2021/08/18 06:47:16;;;;;;;19.77;10.18;;;38.40;34.30;;;;;;5038654;28;20110;-84
2021/08/18 06:49:42;;;;;;;20.55;9.20;;;37.90;35.50;;;;;;5037404;28;20024;-84
2021/08/18 06:52:07;;;;;;;13.07;8.95;;;38.00;35.60;;;;;;5035275;28;20029;-84
2021/08/18 06:54:33;;;;;;;15.38;9.63;;;39.20;34.70;;;;;;5033269;28;20021;-85
2021/08/18 06:56:59;;;;;;;14.85;9.27;;;39.30;34.10;;;;;;5009372;28;20031;-85
2021/08/18 06:59:25;;;;;;;12.15;9.63;;;39.10;34.00;;;;;;5032802;28;20025;-83
2021/08/18 07:01:51;;;;;;;19.50;10.35;;;37.50;34.80;;;;;;5033464;28;20022;-86
2021/08/18 07:04:17;;;;;;;16.42;9.35;;;36.50;36.60;;;;;;5033625;28;20036;-86
2021/08/18 07:06:43;;;;;;;21.08;9.32;;;36.90;37.40;;;;;;5030273;28;20416;-84
2021/08/18 07:09:09;;;;;;;19.02;9.77;;;37.90;36.40;;;;;;5014055;28;20029;-86
2021/08/18 07:11:35;;;;;;;23.27;8.70;;;38.10;35.10;;;;;;5033332;28;20056;-86
2021/08/18 07:14:02;;;;;;;18.45;9.65;;;38.70;34.90;;;;;;5016099;28;20451;-83
2021/08/18 07:16:30;;;;;;;19.48;8.98;;;40.20;34.00;;;;;;5034260;28;20499;-84
2021/08/18 07:18:56;;;;;;;16.73;9.30;;;41.10;33.20;;;;;;5033610;28;20017;-85
2021/08/18 07:21:22;;;;;;;11.05;8.80;;;41.80;32.10;;;;;;5033652;28;20026;-84
2021/08/18 07:23:50;;;;;;;14.38;7.75;;;41.30;31.40;;;;;;5030871;28;20017;-86
2021/08/18 07:26:16;;;;;;;13.45;8.15;;;40.60;31.90;;;;;;5033243;28;20021;-88
2021/08/18 07:28:42;;;;;;;19.98;8.23;;;39.50;32.20;;;;;;5033071;28;20450;-86
2021/08/18 07:31:09;;;;;;;12.95;8.48;;;38.30;33.60;;;;;;5034146;28;20080;-85
2021/08/18 07:33:35;;;;;;;16.58;7.93;;;38.00;33.30;;;;;;5033870;28;20037;-86
2021/08/18 07:36:01;;;;;;;11.33;8.03;;;36.10;35.30;;;;;;5033361;28;20100;-83
2021/08/18 07:38:26;;;;;;;15.25;8.32;;;35.00;36.50;;;;;;5033643;28;20308;-84
2021/08/18 07:40:52;;;;;;;16.80;8.30;;;34.40;37.70;;;;;;5033297;28;20094;-86
2021/08/18 07:43:18;;;;;;;16.20;8.00;;;34.80;38.00;;;;;;5032885;28;20617;-84
2021/08/18 07:45:44;;;;;;;13.30;7.68;;;35.40;37.40;;;;;;5032518;28;20059;-84
2021/08/18 07:48:10;;;;;;;13.05;8.20;;;35.20;37.10;;;;;;5032739;28;20033;-84
2021/08/18 07:50:36;;;;;;;9.95;7.60;;;35.30;37.80;;;;;;5032426;28;20025;-86
2021/08/18 07:53:02;;;;;;;10.40;7.90;;;36.40;36.70;;;;;;5032446;28;20033;-83
2021/08/18 07:55:28;;;;;;;11.23;7.57;;;36.50;36.30;;;;;;5034763;28;20513;-84
2021/08/18 07:57:54;;;;;;;13.30;8.02;;;36.20;36.00;;;;;;5036487;28;20026;-87
2021/08/18 08:00:20;;;;;;;9.25;6.75;;;35.60;36.40;;;;;;5036618;28;20030;-85
2021/08/18 08:02:46;;;;;;;10.15;7.18;;;35.80;36.10;;;;;;5048388;28;20036;-84
2021/08/18 08:05:15;;;;;;;11.30;7.13;;;36.00;35.50;;;;;;5036590;28;20029;-85
2021/08/18 08:07:41;;;;;;;10.85;7.75;;;35.30;36.20;;;;;;5036116;28;20033;-85
2021/08/18 08:10:08;;;;;;;;;;;33.80;38.00;;;;;;5036610;28;20026;-86
2021/08/18 08:12:35;;;;;;;13.30;8.93;;;32.90;39.20;;;;;;5035977;28;20275;-84
2021/08/18 08:15:01;;;;;;;22.05;9.30;;;32.70;41.40;;;;;;5015037;28;20054;-85
2021/08/18 08:17:27;;;;;;;19.05;9.02;;;33.20;41.40;;;;;;5018539;28;20026;-84
2021/08/18 08:19:53;;;;;;;13.40;9.07;;;33.70;40.50;;;;;;5015153;28;20037;-86
2021/08/18 08:22:19;;;;;;;14.55;8.10;;;33.80;41.00;;;;;;5005155;28;20026;-84
2021/08/18 08:24:45;;;;;;;14.15;8.52;;;33.90;39.90;;;;;;5015236;28;20390;-84
2021/08/18 08:27:11;;;;;;;12.43;9.30;;;33.60;39.90;;;;;;5016044;28;20090;-85
2021/08/18 08:29:37;;;;;;;10.18;8.70;;;33.40;40.60;;;;;;5015655;28;20064;-83
2021/08/18 08:32:03;;;;;;;15.20;9.27;;;33.60;40.50;;;;;;5001813;28;20046;-86
2021/08/18 08:34:29;;;;;;;13.88;9.18;;;34.70;39.30;;;;;;5017077;28;20356;-83
2021/08/18 08:36:55;;;;;;;14.48;7.80;;;35.10;38.60;;;;;;5016934;28;20033;-83
2021/08/18 08:39:21;;;;;;;12.40;8.57;;;35.20;38.70;;;;;;5016475;28;20026;-86
2021/08/18 08:41:48;;;;;;;16.40;9.15;;;35.40;38.30;;;;;;5015692;28;20050;-85
2021/08/18 08:44:23;;;;;;;14.23;9.70;;;35.30;38.40;;;;;;5015457;28;20069;-86
2021/08/18 08:46:50;;;;;;;24.70;10.38;;;35.30;38.40;;;;;;5015366;28;20087;-85
2021/08/18 08:49:17;;;;;;;12.85;8.43;;;35.90;38.80;;;;;;5015310;28;20022;-86
2021/08/18 08:51:48;;;;;;;18.77;8.68;;;38.00;36.40;;;;;;5013601;28;20475;-85
2021/08/18 08:54:15;;;;;;;12.13;8.52;;;39.10;34.40;;;;;;5014990;28;20026;-86
2021/08/18 08:56:42;;;;;;;11.45;8.13;;;38.50;34.20;;;;;;5014081;28;20018;-86
2021/08/18 08:59:08;;;;;;;11.85;8.55;;;38.10;34.40;;;;;;5015794;28;20025;-83
2021/08/18 09:01:59;;;;;;;14.13;8.30;;;37.70;34.70;;;;;;5015532;28;20065;-84
2021/08/18 09:04:39;;;;;;;16.35;8.52;;;38.70;34.70;;;;;;5014987;28;20018;-87
2021/08/18 09:07:09;;;;;;;12.40;8.70;;;39.60;33.30;;;;;;5015445;28;20040;-88
2021/08/18 09:09:35;;;;;;;19.70;9.30;;;;;;;;;;5016146;28;20018;-85
2021/08/18 09:12:10;;;;;;;16.65;8.70;;;42.40;31.20;;;;;;5008078;28;20037;-85
2021/08/18 09:14:36;;;;;;;12.18;8.48;;;43.20;30.90;;;;;;5013267;28;22266;-85
2021/08/18 09:17:02;;;;;;;15.82;8.88;;;43.90;30.40;;;;;;5035753;28;20026;-84
2021/08/18 09:19:30;;;;;;;25.02;9.82;;;44.20;30.00;;;;;;5037453;28;20018;-86
2021/08/18 09:22:05;;;;;;;18.95;8.90;;;43.70;30.90;;;;;;5010700;28;20116;-85
2021/08/18 09:24:33;;;;;;;12.40;9.00;;;44.00;29.80;;;;;;5037024;28;20022;-84
2021/08/18 09:27:08;;;;;;;11.27;7.38;;;44.10;29.50;;;;;;5020235;28;20026;-86
2021/08/18 09:29:35;;;;;;;12.17;8.17;;;42.60;29.80;;;;;;5036210;28;20033;-84
2021/08/18 09:32:23;;;;;;;15.15;8.90;;;40.70;31.30;;;;;;5034107;28;20382;-84
2021/08/18 09:34:58;;;;;;;13.48;8.98;;;40.30;32.90;;;;;;5040362;28;20044;-84
2021/08/18 09:37:24;;;;;;;17.45;10.73;;;39.80;32.60;;;;;;5035723;28;20049;-84
2021/08/18 09:39:51;;;;;;;19.42;9.98;;;38.40;33.80;;;;;;5033981;28;20096;-86
2021/08/18 09:42:28;;;;;;;;;;;36.90;34.90;;;;;;5034559;28;20026;-85
2021/08/18 09:45:14;;;;;;;14.52;10.40;;;35.50;36.10;;;;;;5016297;28;19904;-87
2021/08/18 09:48:07;;;;;;;14.60;10.48;;;34.20;39.10;;;;;;5034078;28;20063;-83
2021/08/18 09:50:47;;;;;;;16.20;9.75;;;33.70;39.90;;;;;;5033652;28;20029;-86
2021/08/18 09:53:15;;;;;;;13.20;9.60;;;33.80;40.50;;;;;;5021066;28;20045;-84
2021/08/18 09:55:53;;;;;;;14.80;10.38;;;34.20;40.90;;;;;;5034890;28;20025;-85
2021/08/18 09:58:39;;;;;;;15.52;9.85;;;35.60;39.80;;;;;;5022398;28;20509;-86
2021/08/18 10:01:14;;;;;;;12.70;9.85;;;36.60;37.90;;;;;;5034016;28;20482;-86
2021/08/18 10:03:57;;;;;;;16.43;9.97;;;37.30;37.10;;;;;;5035116;28;20037;-86
2021/08/18 10:06:24;;;;;;;16.00;9.45;;;38.90;36.20;;;;;;5033111;28;20097;-88
2021/08/18 10:08:53;;;;;;;11.95;8.60;;;38.90;33.70;;;;;;5034511;28;20552;-84
2021/08/18 10:11:19;;;;;;;13.27;8.73;;;38.70;34.30;;;;;;5035348;28;20048;-85
2021/08/18 10:13:45;;;;;;;12.52;8.35;;;39.20;34.10;;;;;;5033761;28;20030;-86
2021/08/18 10:16:13;;;;;;;10.75;7.95;;;39.70;33.50;;;;;;5035039;28;20045;-86
2021/08/18 10:18:42;;;;;;;10.20;8.18;;;39.50;33.60;;;;;;5034315;28;20064;-87
2021/08/18 10:21:11;;;;;;;14.07;8.57;;;39.60;33.70;;;;;;5035024;28;20426;-87
2021/08/18 10:23:59;;;;;;;12.70;8.02;;;40.50;33.30;;;;;;5035562;28;20022;-86
2021/08/18 10:26:34;;;;;;;12.75;7.93;;;40.70;32.70;;;;;;5033521;28;20029;-85
2021/08/18 10:29:05;;;;;;;11.37;8.40;;;40.50;33.10;;;;;;5033037;28;20032;-87
2021/08/18 10:31:44;;;;;;;13.10;8.75;;;40.10;33.20;;;;;;5033117;28;20026;-85
2021/08/18 10:34:34;;;;;;;12.82;8.43;;;39.10;34.30;;;;;;5032977;28;20036;-87
2021/08/18 10:37:03;;;;;;;15.13;9.18;;;37.90;35.10;;;;;;5019023;28;20033;-86
2021/08/18 10:39:40;;;;;;;12.70;9.70;;;36.50;37.50;;;;;;5001475;28;20032;-85
2021/08/18 10:42:38;;;;;;;9.50;8.23;;;35.50;38.30;;;;;;5033936;28;20025;-85
2021/08/18 10:45:22;;;;;;;12.40;9.10;;;34.80;39.50;;;;;;5024439;28;20040;-85
2021/08/18 10:47:49;;;;;;;15.63;10.57;;;33.90;40.70;;;;;;5032942;28;20048;-85
2021/08/18 10:50:18;;;;;;;18.75;11.20;;;33.40;40.90;;;;;;5033024;28;20132;-84
2021/08/18 10:52:43;;;;;;;20.10;11.55;;;33.20;41.80;;;;;;5032623;28;20026;-85
2021/08/18 10:55:17;;;;;;;10.90;9.70;;;33.10;40.80;;;;;;5033498;28;20021;-85
2021/08/18 10:57:45;;;;;;;14.38;9.77;;;33.00;40.70;;;;;;5033190;28;20025;-86
2021/08/18 11:00:13;;;;;;;16.52;9.15;;;33.00;40.90;;;;;;5034191;28;20104;-84
2021/08/18 11:02:47;;;;;;;15.65;9.52;;;32.80;40.90;;;;;;5014463;28;20026;-84
2021/08/18 11:05:14;;;;;;;16.05;10.13;;;32.80;41.60;;;;;;5033306;28;20056;-85
2021/08/18 11:08:00;;;;;;;15.50;9.65;;;32.80;41.60;;;;;;5044547;28;20077;-84
2021/08/18 11:10:27;;;;;;;13.50;8.73;;;32.70;41.90;;;;;;5036830;28;20017;-84
2021/08/18 11:12:54;;;;;;;;;;;32.70;42.40;;;;;;5034454;28;20895;-84
2021/08/18 11:15:19;;;;;;;12.65;8.48;;;32.70;41.80;;;;;;5032455;28;20008;-84
2021/08/18 11:17:49;;;;;;;12.85;9.18;;;32.60;42.80;;;;;;5033464;28;20052;-87
2021/08/18 11:20:24;;;;;;;14.40;9.82;;;32.60;42.70;;;;;;5002509;28;20478;-84
2021/08/18 11:22:58;;;;;;;10.00;7.80;;;32.50;43.20;;;;;;5033923;28;20026;-84
2021/08/18 11:25:24;;;;;;;12.25;9.82;;;32.40;43.40;;;;;;5021381;28;20053;-85
2021/08/18 11:27:55;;;;;;;14.82;9.35;;;32.30;44.00;;;;;;5036714;28;20479;-85
2021/08/18 11:30:26;;;;;;;17.38;10.23;;;32.30;43.80;;;;;;5017525;28;20037;-86
2021/08/18 11:32:53;;;;;;;15.63;9.60;;;32.30;43.70;;;;;;5039667;28;20482;-85
2021/08/18 11:35:36;;;;;;;11.07;8.70;;;32.40;44.30;;;;;;5036875;28;20136;-84
2021/08/18 11:38:07;;;;;;;14.07;9.00;;;32.50;43.50;;;;;;5025446;28;20045;-83
2021/08/18 11:40:34;;;;;;;10.05;7.40;;;32.30;43.60;;;;;;5036088;28;20037;-83
2021/08/18 11:43:00;;;;;;;12.95;8.35;;;32.20;42.80;;;;;;5036520;28;20021;-84
2021/08/18 11:45:27;;;;;;;15.63;9.25;;;32.00;43.40;;;;;;5036308;28;20030;-85
2021/08/18 11:48:10;;;;;;;12.10;8.20;;;31.90;44.00;;;;;;5036838;28;20549;-85
2021/08/18 11:50:38;;;;;;;14.07;9.07;;;31.80;44.30;;;;;;5018140;28;20033;-83
2021/08/18 11:53:08;;;;;;;10.80;8.52;;;31.80;44.40;;;;;;5037426;28;20037;-84
2021/08/18 11:55:35;;;;;;;8.52;7.68;;;31.80;44.60;;;;;;5020488;28;20056;-85
2021/08/18 11:58:04;;;;;;;13.68;8.25;;;31.80;45.00;;;;;;5035940;28;20021;-85
2021/08/18 12:00:31;;;;;;;14.00;9.15;;;31.80;45.10;;;;;;5035937;28;20032;-85
2021/08/18 12:02:59;;;;;;;14.00;8.93;;;31.90;44.90;;;;;;5035981;28;20031;-83
2021/08/18 12:05:28;;;;;;;17.75;10.05;;;31.90;44.50;;;;;;5035727;28;20021;-85
2021/08/18 12:08:07;;;;;;;21.55;8.93;;;31.90;44.30;;;;;;5035369;28;20068;-86
2021/08/18 12:10:42;;;;;;;11.07;7.47;;;31.90;44.10;;;;;;5035762;28;20458;-85
2021/08/18 12:13:16;;;;;;;12.45;9.00;;;31.80;43.70;;;;;;5038693;28;20033;-86
2021/08/18 12:15:46;;;;;;;13.25;9.07;;;31.50;44.20;;;;;;5037392;28;20107;-84
2021/08/18 12:18:33;;;;;;;18.10;9.23;;;31.50;44.50;;;;;;5037194;28;20053;-85
2021/08/18 12:21:17;;;;;;;;;;;31.50;45.00;;;;;;5035967;28;20044;-85
2021/08/18 12:23:45;;;;;;;17.50;9.45;;;31.60;44.60;;;;;;5021960;28;19912;-86
2021/08/18 12:26:32;;;;;;;13.10;9.20;;;31.70;44.80;;;;;;5037168;28;20087;-86
2021/08/18 12:29:01;;;;;;;12.70;9.25;;;31.90;44.70;;;;;;5023309;28;20096;-86
2021/08/18 12:31:47;;;;;;;12.10;8.40;;;32.00;44.60;;;;;;5035964;28;20513;-86
2021/08/18 12:34:13;;;;;;;12.90;8.10;;;31.90;44.10;;;;;;5038258;28;20555;-84
2021/08/18 12:36:39;;;;;;;11.33;7.97;;;31.80;43.80;;;;;;5039249;28;20391;-86
2021/08/18 12:39:05;;;;;;;10.67;8.40;;;31.60;44.20;;;;;;5038039;28;20309;-84